Time;durP1;ratioP1;P1;durP2;ratioP2;P2;SDS_P1;SDS_P2;PMS_P1;PMS_P2;Temp;Humidity;BMP_temperature;BMP_pressure;BME280_temperature;BME280_humidity;BME280_pressure;Samples;Min_cycle;Max_cycle;Signal;HPM_P1;HPM_P2
2024/01/29 00:02:02;;;;;;;16.23;9.37;;;-1.80;99.90;;;;;;5034882;28;20391;-74
2024/01/29 00:04:27;;;;;;;16.27;9.23;;;-1.80;99.90;;;;;;5034483;28;20544;-73
2024/01/29 00:06:53;;;;;;;21.40;9.37;;;-1.80;99.90;;;;;;5034634;28;20029;-74
2024/01/29 00:09:19;;;;;;;23.77;9.93;;;-1.90;99.90;;;;;;5034813;28;20030;-74
2024/01/29 00:11:45;;;;;;;14.30;7.70;;;-1.80;99.90;;;;;;5034624;28;20080;-74
2024/01/29 00:14:10;;;;;;;18.03;9.20;;;-1.80;99.90;;;;;;5034181;28;20018;-74
2024/01/29 00:16:36;;;;;;;19.40;9.03;;;-1.90;99.90;;;;;;5034263;28;20029;-74
2024/01/29 00:19:01;;;;;;;17.27;8.80;;;-1.90;99.90;;;;;;5034095;28;20025;-74
2024/01/29 00:21:27;;;;;;;16.40;8.47;;;-1.90;99.90;;;;;;5033936;28;20049;-74
2024/01/29 00:23:54;;;;;;;18.80;9.00;;;-1.90;99.90;;;;;;5034202;28;20052;-73
2024/01/29 00:26:19;;;;;;;16.37;8.23;;;-1.90;99.90;;;;;;5033833;28;20104;-75
2024/01/29 00:28:45;;;;;;;16.87;9.00;;;-1.90;99.90;;;;;;5033463;28;20060;-74
2024/01/29 00:31:10;;;;;;;15.90;8.97;;;-2.00;99.90;;;;;;5033704;28;20472;-73
2024/01/29 00:33:36;;;;;;;11.53;7.60;;;-1.90;99.90;;;;;;5033931;28;20631;-74
2024/01/29 00:36:01;;;;;;;16.57;8.27;;;-1.90;99.90;;;;;;5033103;28;20056;-74
2024/01/29 00:38:27;;;;;;;16.23;7.60;;;-2.00;99.90;;;;;;5033661;28;20224;-74
2024/01/29 00:40:52;;;;;;;16.80;8.60;;;-2.00;99.90;;;;;;5028496;28;20053;-74
2024/01/29 00:43:18;;;;;;;13.17;6.53;;;-2.00;99.90;;;;;;5033743;28;20033;-74
2024/01/29 00:45:43;;;;;;;11.13;6.80;;;-2.00;99.90;;;;;;5027192;28;20539;-74
2024/01/29 00:48:09;;;;;;;11.43;7.07;;;-2.00;99.90;;;;;;5027050;28;20036;-75
2024/01/29 00:50:35;;;;;;;14.37;7.60;;;-2.00;99.90;;;;;;5033168;28;20026;-73
2024/01/29 00:53:00;;;;;;;13.73;7.30;;;-2.00;99.90;;;;;;5033909;28;20101;-74
2024/01/29 00:55:26;;;;;;;10.93;6.60;;;-2.10;99.90;;;;;;5033388;28;20484;-74
2024/01/29 00:57:52;;;;;;;12.63;7.10;;;-2.00;99.90;;;;;;5032981;28;20022;-74
2024/01/29 01:00:17;;;;;;;14.00;7.47;;;-2.10;99.90;;;;;;5032707;28;20025;-74
2024/01/29 01:02:43;;;;;;;11.23;6.60;;;-2.10;99.90;;;;;;5033375;28;20029;-73
2024/01/29 01:05:09;;;;;;;12.67;6.67;;;-2.10;99.90;;;;;;5032582;28;20033;-73
2024/01/29 01:07:34;;;;;;;11.27;7.10;;;-2.10;99.90;;;;;;5032382;28;20060;-74
2024/01/29 01:10:00;;;;;;;12.33;7.03;;;-2.10;99.90;;;;;;5032897;28;20037;-74
2024/01/29 01:12:25;;;;;;;12.07;6.83;;;-2.10;99.90;;;;;;5033133;28;20040;-74
2024/01/29 01:14:51;;;;;;;15.67;7.07;;;-2.10;99.90;;;;;;5032828;28;20408;-73
2024/01/29 01:17:17;;;;;;;14.60;8.20;;;-2.10;99.90;;;;;;5032450;28;20030;-74
2024/01/29 01:19:43;;;;;;;11.60;6.97;;;-2.20;99.90;;;;;;5032671;28;20033;-74
2024/01/29 01:22:08;;;;;;;9.73;6.57;;;-2.10;99.90;;;;;;5033010;28;20032;-75
2024/01/29 01:24:34;;;;;;;11.80;6.03;;;-2.20;99.90;;;;;;5032503;28;20021;-74
2024/01/29 01:26:59;;;;;;;13.10;7.23;;;-2.20;99.90;;;;;;5032491;28;20028;-73
2024/01/29 01:29:25;;;;;;;10.77;6.30;;;-2.20;99.90;;;;;;5033112;28;20061;-74
2024/01/29 01:31:50;;;;;;;9.70;6.80;;;-2.20;99.90;;;;;;5033288;28;20052;-74
2024/01/29 01:34:16;;;;;;;10.10;5.67;;;-2.20;99.90;;;;;;5033028;28;20037;-74
2024/01/29 01:36:41;;;;;;;12.13;6.53;;;-2.20;99.90;;;;;;5032522;28;20028;-73
2024/01/29 01:39:08;;;;;;;13.23;7.10;;;-2.20;99.90;;;;;;5030756;28;20057;-73
2024/01/29 01:41:34;;;;;;;11.70;6.13;;;-2.20;99.90;;;;;;5022140;28;20044;-74
2024/01/29 01:43:59;;;;;;;10.87;5.73;;;-2.20;99.90;;;;;;5013161;28;20495;-74
2024/01/29 01:46:25;;;;;;;13.03;6.90;;;-2.30;99.90;;;;;;5013228;28;20041;-74
2024/01/29 01:48:52;;;;;;;10.47;5.93;;;-2.30;99.90;;;;;;5013087;28;20037;-74
2024/01/29 01:51:20;;;;;;;10.43;6.40;;;-2.30;99.90;;;;;;5013174;28;20034;-74
2024/01/29 01:53:48;;;;;;;10.23;6.20;;;-2.30;99.90;;;;;;5013309;28;20022;-74
2024/01/29 01:56:14;;;;;;;12.03;6.03;;;-2.30;99.90;;;;;;5017729;28;20072;-74
2024/01/29 01:58:41;;;;;;;9.77;6.20;;;-2.30;99.90;;;;;;5032472;28;20396;-74
2024/01/29 02:01:08;;;;;;;11.83;6.50;;;-2.30;99.90;;;;;;5032918;28;20021;-74
2024/01/29 02:03:33;;;;;;;10.10;5.83;;;-2.40;99.90;;;;;;5033011;28;20047;-74
2024/01/29 02:05:59;;;;;;;10.67;6.50;;;-2.40;99.90;;;;;;5033052;28;20512;-75
2024/01/29 02:08:25;;;;;;;10.83;5.73;;;-2.40;99.90;;;;;;5032641;28;20033;-74
2024/01/29 02:10:52;;;;;;;11.97;6.10;;;-2.40;99.90;;;;;;5032599;28;20064;-74
2024/01/29 02:13:17;;;;;;;14.20;6.30;;;-2.40;99.90;;;;;;5032503;28;20033;-74
2024/01/29 02:15:43;;;;;;;8.87;6.00;;;-2.40;99.90;;;;;;5032542;28;20029;-74
2024/01/29 02:18:08;;;;;;;9.63;5.87;;;-2.40;99.90;;;;;;5031563;28;20079;-74
2024/01/29 02:20:35;;;;;;;9.80;5.53;;;-2.40;99.90;;;;;;5032235;28;20104;-74
2024/01/29 02:23:01;;;;;;;10.37;5.53;;;-2.50;99.90;;;;;;5032251;28;20026;-74
2024/01/29 02:25:27;;;;;;;10.07;5.90;;;-2.40;99.90;;;;;;5032338;28;20485;-74
2024/01/29 02:27:52;;;;;;;9.67;5.77;;;-2.50;99.90;;;;;;5032180;28;20077;-74
2024/01/29 02:30:18;;;;;;;12.00;5.80;;;-2.40;99.90;;;;;;5032157;28;20033;-74
2024/01/29 02:32:44;;;;;;;9.63;5.80;;;-2.40;99.90;;;;;;5032358;28;20120;-74
2024/01/29 02:35:10;;;;;;;10.13;5.67;;;-2.50;99.90;;;;;;5031602;28;20461;-73
2024/01/29 02:37:35;;;;;;;12.70;6.47;;;-2.50;99.90;;;;;;5031337;28;20049;-74
2024/01/29 02:40:01;;;;;;;10.77;6.30;;;-2.50;99.90;;;;;;5025718;28;20029;-74
2024/01/29 02:42:27;;;;;;;12.07;6.20;;;-2.50;99.90;;;;;;5017851;28;20029;-74
2024/01/29 02:44:52;;;;;;;11.33;6.23;;;-2.50;99.90;;;;;;5012330;28;20492;-74
2024/01/29 02:47:18;;;;;;;9.63;5.27;;;-2.60;99.90;;;;;;5012054;28;20121;-73
2024/01/29 02:49:44;;;;;;;12.40;5.73;;;-2.60;99.90;;;;;;5019386;28;20417;-74
2024/01/29 02:52:13;;;;;;;10.13;6.07;;;-2.60;99.90;;;;;;5031836;28;20031;-74
2024/01/29 02:54:39;;;;;;;9.17;5.83;;;-2.60;99.90;;;;;;5031875;28;20021;-74
2024/01/29 02:57:04;;;;;;;9.80;5.63;;;-2.60;99.90;;;;;;5031448;28;20108;-74
2024/01/29 02:59:30;;;;;;;15.90;6.03;;;-2.60;99.90;;;;;;5031711;28;20025;-74
2024/01/29 03:01:56;;;;;;;10.30;5.43;;;-2.60;99.90;;;;;;5031929;28;20435;-74
2024/01/29 03:04:22;;;;;;;9.63;6.10;;;-2.60;99.90;;;;;;5031354;28;20036;-74
2024/01/29 03:06:47;;;;;;;7.67;5.53;;;-2.70;99.90;;;;;;5031343;28;20719;-74
2024/01/29 03:09:14;;;;;;;8.97;5.63;;;-2.60;99.90;;;;;;5031630;28;20456;-73
2024/01/29 03:11:40;;;;;;;10.53;5.30;;;-2.70;99.90;;;;;;5031362;28;20408;-74
2024/01/29 03:14:05;;;;;;;10.13;5.60;;;-2.70;99.90;;;;;;5031624;28;20029;-74
2024/01/29 03:16:31;;;;;;;9.00;5.57;;;-2.70;99.90;;;;;;5031699;28;20021;-74
2024/01/29 03:18:56;;;;;;;9.67;5.33;;;-2.70;99.90;;;;;;5031127;28;20030;-73
2024/01/29 03:21:22;;;;;;;11.27;5.63;;;-2.70;99.90;;;;;;5031487;28;20022;-74
2024/01/29 03:23:48;;;;;;;9.63;5.67;;;-2.70;99.90;;;;;;5031310;28;20078;-74
2024/01/29 03:26:13;;;;;;;10.10;5.47;;;-2.80;99.90;;;;;;5030704;28;20396;-74
2024/01/29 03:28:40;;;;;;;10.77;5.80;;;-2.80;99.90;;;;;;5030841;28;20508;-75
2024/01/29 03:31:05;;;;;;;10.70;5.47;;;-2.80;99.90;;;;;;5030770;28;20044;-74
2024/01/29 03:33:31;;;;;;;9.17;5.40;;;-2.80;99.90;;;;;;5031278;28;20484;-73
2024/01/29 03:35:56;;;;;;;10.03;6.07;;;-2.80;99.90;;;;;;5030205;28;20034;-73
2024/01/29 03:38:22;;;;;;;10.30;5.67;;;-2.90;99.90;;;;;;5030626;28;20068;-74
2024/01/29 03:40:48;;;;;;;11.50;6.00;;;-2.90;99.90;;;;;;5024162;28;20600;-74
2024/01/29 03:43:13;;;;;;;10.20;5.50;;;-2.90;99.90;;;;;;5011801;28;20509;-74
2024/01/29 03:45:39;;;;;;;12.17;5.97;;;-2.90;99.90;;;;;;5011310;28;20428;-74
2024/01/29 03:48:05;;;;;;;10.77;5.90;;;-2.90;99.90;;;;;;5011298;28;20480;-73
2024/01/29 03:50:30;;;;;;;12.23;6.20;;;-2.90;99.90;;;;;;5015872;28;20018;-74
2024/01/29 03:52:56;;;;;;;11.70;5.67;;;-2.90;99.90;;;;;;5030183;28;20037;-74
2024/01/29 03:55:21;;;;;;;12.77;7.20;;;-2.90;99.90;;;;;;5030167;28;20021;-74
2024/01/29 03:57:47;;;;;;;11.17;6.30;;;-2.90;99.90;;;;;;5030282;28;20026;-74
2024/01/29 04:00:15;;;;;;;12.57;6.27;;;-2.90;99.90;;;;;;5030370;28;20088;-73
2024/01/29 04:02:42;;;;;;;11.37;5.90;;;-2.90;99.90;;;;;;5030789;28;20097;-74
2024/01/29 04:05:09;;;;;;;10.47;5.70;;;-2.90;99.90;;;;;;5030166;28;20428;-74
2024/01/29 04:07:35;;;;;;;8.20;4.90;;;-3.00;99.90;;;;;;5030948;28;20037;-73
2024/01/29 04:10:00;;;;;;;11.37;6.20;;;-3.00;99.90;;;;;;5024480;28;20022;-74
2024/01/29 04:12:26;;;;;;;9.97;5.57;;;-3.00;99.90;;;;;;5023511;28;20079;-74
2024/01/29 04:14:51;;;;;;;11.13;5.83;;;-3.00;99.90;;;;;;5031898;28;20048;-73
2024/01/29 04:17:17;;;;;;;13.73;6.67;;;-3.00;99.90;;;;;;5036284;28;20029;-74
2024/01/29 04:19:42;;;;;;;13.63;6.27;;;-3.00;99.90;;;;;;5030022;28;20025;-74
2024/01/29 04:22:08;;;;;;;10.63;5.67;;;-3.10;99.90;;;;;;5036422;28;20025;-74
2024/01/29 04:24:34;;;;;;;9.80;6.20;;;-3.10;99.90;;;;;;5031672;28;20033;-74
2024/01/29 04:27:00;;;;;;;10.63;6.23;;;-3.10;99.90;;;;;;5029348;28;20033;-74
2024/01/29 04:29:26;;;;;;;9.90;6.00;;;-3.10;99.90;;;;;;5036490;28;20033;-74
2024/01/29 04:31:51;;;;;;;10.93;5.87;;;-3.10;99.90;;;;;;5032088;28;20497;-74
2024/01/29 04:34:17;;;;;;;11.47;5.90;;;-3.10;99.90;;;;;;5037861;28;20049;-74
2024/01/29 04:36:43;;;;;;;14.00;6.07;;;-3.10;99.90;;;;;;5031629;28;20020;-74
2024/01/29 04:39:09;;;;;;;9.10;5.80;;;-3.10;99.90;;;;;;5029307;28;20026;-74
2024/01/29 04:41:34;;;;;;;10.40;6.00;;;-3.10;99.90;;;;;;5045760;28;20025;-74
2024/01/29 04:44:00;;;;;;;11.20;6.27;;;-3.10;99.90;;;;;;5054467;28;20028;-74
2024/01/29 04:46:25;;;;;;;9.67;5.73;;;-3.10;99.90;;;;;;5034143;28;20033;-74
2024/01/29 04:48:51;;;;;;;10.43;6.20;;;-3.10;99.90;;;;;;5033848;28;20041;-74
2024/01/29 04:51:16;;;;;;;10.70;6.17;;;-3.10;99.90;;;;;;5034253;28;20052;-74
2024/01/29 04:53:42;;;;;;;12.57;5.60;;;-3.10;99.90;;;;;;5033985;28;20033;-75
2024/01/29 04:56:07;;;;;;;9.27;5.73;;;-3.10;99.90;;;;;;5034753;28;20480;-73
2024/01/29 04:58:33;;;;;;;11.30;5.87;;;-3.10;99.90;;;;;;5033505;28;20376;-74
2024/01/29 05:00:59;;;;;;;11.73;6.30;;;-3.10;99.90;;;;;;5033457;28;20025;-73
2024/01/29 05:03:26;;;;;;;11.20;6.00;;;-3.20;99.90;;;;;;5033990;28;20028;-74
2024/01/29 05:05:51;;;;;;;12.93;5.93;;;-3.20;99.90;;;;;;5033484;28;20036;-73
2024/01/29 05:08:18;;;;;;;14.17;6.77;;;-3.20;99.90;;;;;;5033481;28;20757;-73
2024/01/29 05:10:45;;;;;;;19.57;6.10;;;-3.20;99.90;;;;;;5032683;28;20036;-73
2024/01/29 05:13:10;;;;;;;9.67;5.87;;;-3.20;99.90;;;;;;5020694;28;20080;-73
2024/01/29 05:15:36;;;;;;;11.80;6.03;;;-3.20;99.90;;;;;;5022612;28;20026;-72
2024/01/29 05:18:02;;;;;;;10.67;5.63;;;-3.20;99.90;;;;;;5016486;28;20021;-73
2024/01/29 05:20:27;;;;;;;12.83;6.07;;;-3.20;99.90;;;;;;5019693;28;20025;-73
2024/01/29 05:22:53;;;;;;;9.90;5.73;;;-3.20;99.90;;;;;;5020614;28;20018;-74
2024/01/29 05:25:19;;;;;;;10.10;5.90;;;-3.30;99.90;;;;;;5019721;28;20030;-73
2024/01/29 05:27:44;;;;;;;10.53;5.60;;;-3.20;99.90;;;;;;5019106;28;20588;-74
2024/01/29 05:30:10;;;;;;;10.87;6.10;;;-3.30;99.90;;;;;;5020365;28;20025;-73
2024/01/29 05:32:36;;;;;;;9.83;5.63;;;-3.30;99.90;;;;;;5018811;28;20026;-73
2024/01/29 05:35:02;;;;;;;11.23;5.67;;;-3.30;99.90;;;;;;5022153;28;20036;-74
2024/01/29 05:37:28;;;;;;;8.87;5.30;;;-3.30;99.90;;;;;;5019839;28;20065;-74
2024/01/29 05:39:54;;;;;;;11.93;6.57;;;-3.30;99.90;;;;;;5028031;28;20030;-74
2024/01/29 05:42:20;;;;;;;12.73;7.10;;;-3.40;99.90;;;;;;5032648;28;20070;-74
2024/01/29 05:44:45;;;;;;;12.17;6.90;;;-3.40;99.90;;;;;;5032486;28;20439;-74
2024/01/29 05:47:11;;;;;;;11.93;6.20;;;-3.40;99.90;;;;;;5032874;28;20504;-74
2024/01/29 05:49:37;;;;;;;12.30;6.90;;;-3.40;99.90;;;;;;5027843;28;20455;-73
2024/01/29 05:52:05;;;;;;;11.17;5.70;;;-3.40;99.90;;;;;;5023853;28;20021;-73
2024/01/29 05:54:30;;;;;;;16.97;6.40;;;-3.40;99.90;;;;;;5020408;28;20029;-74
2024/01/29 05:56:57;;;;;;;10.60;6.10;;;-3.40;99.90;;;;;;5017863;28;20018;-73
2024/01/29 05:59:23;;;;;;;9.87;5.33;;;-3.40;99.90;;;;;;5021658;28;20100;-73
2024/01/29 06:01:48;;;;;;;13.03;6.03;;;-3.50;99.90;;;;;;5020498;28;20138;-73
2024/01/29 06:04:14;;;;;;;13.60;6.67;;;-3.50;99.90;;;;;;5026613;28;20024;-74
2024/01/29 06:06:41;;;;;;;14.90;7.83;;;-3.40;99.90;;;;;;5021399;28;20105;-74
2024/01/29 06:09:09;;;;;;;10.80;6.57;;;-3.40;99.90;;;;;;5017873;28;20442;-74
2024/01/29 06:11:35;;;;;;;13.90;6.83;;;-3.50;99.90;;;;;;5019826;28;20038;-74
2024/01/29 06:14:00;;;;;;;13.47;6.87;;;-3.40;99.90;;;;;;5024844;28;20047;-75
2024/01/29 06:16:26;;;;;;;13.00;6.80;;;-3.40;99.90;;;;;;5032254;28;20109;-75
2024/01/29 06:18:52;;;;;;;13.97;7.70;;;-3.40;99.90;;;;;;5030272;28;20030;-77
2024/01/29 06:21:17;;;;;;;15.77;8.07;;;-3.40;99.90;;;;;;5023288;28;20554;-74
2024/01/29 06:23:43;;;;;;;16.63;7.13;;;-3.50;99.90;;;;;;5031011;28;20499;-75
2024/01/29 06:26:09;;;;;;;14.17;6.53;;;-3.50;99.90;;;;;;5031491;28;20032;-76
2024/01/29 06:28:35;;;;;;;44.47;8.33;;;-3.50;99.90;;;;;;5033405;28;20544;-75
2024/01/29 06:31:00;;;;;;;20.13;6.80;;;-3.50;99.90;;;;;;5032880;28;20096;-76
2024/01/29 06:33:26;;;;;;;18.47;6.37;;;-3.50;99.90;;;;;;5026626;28;20048;-75
2024/01/29 06:35:51;;;;;;;10.77;6.13;;;-3.50;99.90;;;;;;5029980;28;20025;-76
2024/01/29 06:38:18;;;;;;;8.60;5.53;;;-3.50;99.90;;;;;;5029582;28;21038;-75
2024/01/29 06:40:43;;;;;;;12.60;6.07;;;-3.50;99.90;;;;;;5028284;28;20584;-75
2024/01/29 06:43:09;;;;;;;10.37;5.40;;;-3.40;99.90;;;;;;5040265;28;20109;-75
2024/01/29 06:45:35;;;;;;;11.70;5.90;;;-3.50;99.90;;;;;;5020708;28;20037;-75
2024/01/29 06:48:01;;;;;;;13.33;6.63;;;-3.40;99.90;;;;;;5022034;28;20022;-74
2024/01/29 06:50:27;;;;;;;20.07;7.20;;;-3.50;99.90;;;;;;5030325;28;20018;-75
2024/01/29 06:52:53;;;;;;;13.97;6.40;;;-3.50;99.90;;;;;;5027105;28;20020;-75
2024/01/29 06:55:20;;;;;;;14.67;6.23;;;-3.40;99.90;;;;;;5027263;28;20060;-73
2024/01/29 06:57:46;;;;;;;16.37;6.13;;;-3.40;99.90;;;;;;5035027;28;20104;-73
2024/01/29 07:00:13;;;;;;;9.37;5.33;;;-3.40;99.90;;;;;;5035359;28;20025;-73
2024/01/29 07:02:38;;;;;;;15.00;5.70;;;-3.40;99.90;;;;;;5028653;28;20057;-74
2024/01/29 07:05:04;;;;;;;11.83;5.60;;;-3.40;99.90;;;;;;5027469;28;20103;-71
2024/01/29 07:07:30;;;;;;;10.13;5.00;;;-3.40;99.90;;;;;;5033115;28;20029;-73
2024/01/29 07:09:55;;;;;;;17.43;5.50;;;-3.40;99.90;;;;;;5043280;28;20385;-73
2024/01/29 07:12:21;;;;;;;10.73;5.67;;;-3.40;99.90;;;;;;5034894;28;20029;-73
2024/01/29 07:14:47;;;;;;;10.90;5.10;;;-3.30;99.90;;;;;;5029536;28;20027;-74
2024/01/29 07:17:12;;;;;;;11.30;5.00;;;-3.30;99.90;;;;;;5029218;28;20017;-72
2024/01/29 07:19:38;;;;;;;14.60;5.87;;;-3.30;99.90;;;;;;5029060;28;20030;-73
2024/01/29 07:22:04;;;;;;;12.30;5.77;;;-3.30;99.90;;;;;;5029932;28;20028;-73
2024/01/29 07:24:33;;;;;;;16.03;6.00;;;-3.30;99.90;;;;;;5042394;28;20017;-73
2024/01/29 07:26:59;;;;;;;9.40;5.97;;;-3.20;99.90;;;;;;5045808;28;20065;-74
2024/01/29 07:29:26;;;;;;;8.23;4.73;;;-3.20;99.90;;;;;;5046058;28;20032;-73
2024/01/29 07:31:53;;;;;;;8.47;4.93;;;-3.20;99.90;;;;;;5035567;28;20500;-74
2024/01/29 07:34:19;;;;;;;9.00;4.73;;;-3.10;99.90;;;;;;5035460;28;20392;-74
2024/01/29 07:36:44;;;;;;;15.17;4.97;;;-3.10;99.90;;;;;;5035051;28;20021;-73
2024/01/29 07:39:12;;;;;;;10.27;5.03;;;-3.00;99.90;;;;;;5029680;28;20568;-73
2024/01/29 07:41:41;;;;;;;27.57;5.20;;;-3.00;99.90;;;;;;5033109;28;20061;-74
2024/01/29 07:44:07;;;;;;;13.10;5.47;;;-2.90;99.90;;;;;;5028596;28;20029;-73
2024/01/29 07:46:33;;;;;;;9.87;5.30;;;-2.90;99.90;;;;;;5025113;28;20521;-74
2024/01/29 07:49:01;;;;;;;10.00;4.50;;;-2.80;99.90;;;;;;5030531;28;20025;-74
2024/01/29 07:51:27;;;;;;;13.30;4.50;;;-2.80;99.90;;;;;;5023073;28;20017;-74
2024/01/29 07:53:53;;;;;;;13.30;6.33;;;-2.70;99.90;;;;;;5043343;28;20017;-74
2024/01/29 07:56:18;;;;;;;7.37;4.67;;;-2.70;99.90;;;;;;5045353;28;20032;-73
2024/01/29 07:58:44;;;;;;;10.53;5.33;;;-2.60;99.90;;;;;;5041485;28;20426;-74
2024/01/29 08:01:10;;;;;;;8.43;4.73;;;-2.60;99.90;;;;;;5017517;28;20429;-74
2024/01/29 08:03:35;;;;;;;10.80;4.97;;;-2.50;99.90;;;;;;5014346;28;20171;-73
2024/01/29 08:06:02;;;;;;;8.60;4.90;;;-2.50;99.90;;;;;;5021392;28;20477;-74
2024/01/29 08:08:29;;;;;;;7.87;4.93;;;-2.40;99.90;;;;;;5026432;28;20040;-74
2024/01/29 08:10:57;;;;;;;11.40;5.53;;;-2.30;99.90;;;;;;5019850;28;20090;-74
2024/01/29 08:13:23;;;;;;;10.23;5.50;;;-2.20;99.90;;;;;;5027128;28;20021;-74
2024/01/29 08:15:48;;;;;;;10.30;5.10;;;-2.10;99.90;;;;;;5037175;28;20384;-73
2024/01/29 08:18:14;;;;;;;12.13;5.97;;;-2.10;99.90;;;;;;5037626;28;20052;-73
2024/01/29 08:20:39;;;;;;;12.87;6.10;;;-2.00;99.90;;;;;;5032791;28;20029;-74
2024/01/29 08:23:05;;;;;;;11.07;6.10;;;-1.90;99.90;;;;;;5033471;28;20013;-74
2024/01/29 08:25:30;;;;;;;13.67;5.17;;;-1.80;99.90;;;;;;5033797;28;20052;-74
2024/01/29 08:27:57;;;;;;;13.23;5.30;;;-1.80;99.90;;;;;;5032179;28;20091;-73
2024/01/29 08:30:22;;;;;;;10.10;5.17;;;-1.70;99.90;;;;;;5038392;28;20021;-73
2024/01/29 08:32:48;;;;;;;8.50;4.73;;;-1.50;99.90;;;;;;5027295;28;20100;-73
2024/01/29 08:35:14;;;;;;;9.90;6.00;;;-1.40;99.90;;;;;;5041023;28;20104;-73
2024/01/29 08:37:41;;;;;;;15.03;7.87;;;-1.20;99.90;;;;;;5039218;28;20025;-73
2024/01/29 08:40:07;;;;;;;18.30;8.47;;;-1.10;99.90;;;;;;5037683;28;20033;-73
2024/01/29 08:42:32;;;;;;;15.93;8.90;;;-0.90;99.90;;;;;;5045333;28;20556;-73
2024/01/29 08:45:00;;;;;;;17.83;7.67;;;-0.70;99.90;;;;;;5053251;28;20021;-73
2024/01/29 08:47:25;;;;;;;24.60;8.63;;;-0.50;99.90;;;;;;5051626;28;20045;-73
2024/01/29 08:49:51;;;;;;;18.30;8.33;;;-0.30;99.90;;;;;;5053068;28;20040;-73
2024/01/29 08:52:17;;;;;;;17.17;9.13;;;-0.10;99.90;;;;;;5053233;28;20444;-73
2024/01/29 08:54:44;;;;;;;18.43;8.03;;;0.00;99.90;;;;;;5053203;28;20052;-75
2024/01/29 08:57:09;;;;;;;16.07;8.13;;;0.20;99.90;;;;;;5050882;28;20021;-73
2024/01/29 08:59:35;;;;;;;17.17;8.83;;;0.30;99.90;;;;;;5022395;28;20026;-74
2024/01/29 09:02:00;;;;;;;16.60;8.43;;;0.50;99.90;;;;;;5029392;28;20033;-74
2024/01/29 09:04:27;;;;;;;14.57;7.90;;;0.50;99.90;;;;;;5029882;28;20045;-80
2024/01/29 09:06:52;;;;;;;20.03;8.23;;;0.70;99.90;;;;;;5031161;28;20033;-73
2024/01/29 09:09:18;;;;;;;14.83;7.83;;;0.80;99.90;;;;;;5041807;28;20112;-74
2024/01/29 09:11:44;;;;;;;12.43;7.20;;;0.80;99.90;;;;;;5042472;28;20052;-74
2024/01/29 09:14:09;;;;;;;13.27;7.03;;;0.90;99.90;;;;;;5049447;28;20500;-73
2024/01/29 09:16:35;;;;;;;18.37;9.67;;;0.90;99.90;;;;;;5034445;28;20432;-74
2024/01/29 09:19:00;;;;;;;16.30;9.90;;;1.00;99.90;;;;;;5030768;28;20415;-74
2024/01/29 09:21:30;;;;;;;27.27;17.73;;;1.10;99.90;;;;;;5031521;28;20076;-75
2024/01/29 09:23:56;;;;;;;12.53;6.47;;;1.20;99.90;;;;;;5030717;28;20021;-74
2024/01/29 09:26:22;;;;;;;16.40;9.57;;;1.30;99.90;;;;;;5033939;28;20032;-74
2024/01/29 09:28:47;;;;;;;11.70;6.27;;;1.40;99.90;;;;;;5032783;28;20019;-74
2024/01/29 09:31:13;;;;;;;14.30;7.33;;;1.50;99.90;;;;;;5034461;28;20516;-74
2024/01/29 09:33:38;;;;;;;11.30;6.33;;;1.60;99.90;;;;;;5029116;28;20499;-74
2024/01/29 09:36:04;;;;;;;11.07;6.00;;;1.70;99.90;;;;;;5030639;28;20021;-74
2024/01/29 09:38:30;;;;;;;11.33;6.37;;;1.80;99.90;;;;;;5029306;28;20035;-74
2024/01/29 09:40:57;;;;;;;16.23;7.97;;;1.90;99.90;;;;;;5027450;28;20033;-73
2024/01/29 09:43:25;;;;;;;27.30;12.63;;;2.00;99.90;;;;;;5046590;28;20029;-74
2024/01/29 09:45:52;;;;;;;22.90;10.80;;;2.10;99.90;;;;;;5041666;28;20036;-73
2024/01/29 09:48:18;;;;;;;45.03;12.07;;;2.20;99.90;;;;;;5047950;28;20536;-74
2024/01/29 09:50:47;;;;;;;72.93;16.00;;;2.30;99.90;;;;;;5046224;28;20025;-73
2024/01/29 09:53:16;;;;;;;42.27;11.77;;;2.50;99.90;;;;;;5048571;28;20056;-74
2024/01/29 09:55:42;;;;;;;28.60;9.30;;;2.60;99.90;;;;;;5026346;28;20053;-74
2024/01/29 09:58:08;;;;;;;28.03;9.03;;;2.80;99.90;;;;;;5028749;28;20084;-74
2024/01/29 10:00:34;;;;;;;21.07;7.77;;;3.00;99.90;;;;;;5030886;28;20033;-74
2024/01/29 10:03:04;;;;;;;21.13;7.43;;;3.20;99.90;;;;;;5036274;28;20021;-74
2024/01/29 10:05:31;;;;;;;16.87;6.70;;;3.30;99.90;;;;;;5026805;28;20041;-74
2024/01/29 10:08:00;;;;;;;25.43;6.87;;;3.40;99.90;;;;;;5022357;28;20021;-73
2024/01/29 10:10:26;;;;;;;12.90;5.10;;;3.60;99.90;;;;;;5031903;28;20032;-74
2024/01/29 10:13:07;;;;;;;29.27;6.60;;;3.70;99.90;;;;;;5045189;28;20029;-74
2024/01/29 10:15:33;;;;;;;16.43;5.97;;;3.90;99.90;;;;;;5034489;28;20507;-73
2024/01/29 10:17:58;;;;;;;18.73;5.57;;;4.00;99.90;;;;;;5034037;28;20020;-74
2024/01/29 10:20:24;;;;;;;17.57;5.47;;;4.10;99.90;;;;;;5031455;28;20551;-74
2024/01/29 10:23:00;;;;;;;14.20;5.87;;;4.20;99.90;;;;;;5030135;28;20259;-75
2024/01/29 10:25:27;;;;;;;24.80;5.67;;;4.20;99.90;;;;;;5024865;28;20022;-74
2024/01/29 10:27:53;;;;;;;12.37;5.20;;;4.30;99.90;;;;;;5022431;28;20018;-74
2024/01/29 10:30:19;;;;;;;17.93;6.07;;;4.50;99.90;;;;;;5038318;28;20029;-74
2024/01/29 10:32:44;;;;;;;17.60;7.23;;;4.60;99.90;;;;;;5029236;28;20088;-73
2024/01/29 10:35:10;;;;;;;15.40;4.47;;;4.80;99.90;;;;;;5033693;28;20064;-74
2024/01/29 10:37:35;;;;;;;16.67;4.70;;;5.00;99.90;;;;;;5029095;28;20049;-74
2024/01/29 10:40:04;;;;;;;16.07;6.17;;;5.20;99.90;;;;;;5023134;28;20105;-74
2024/01/29 10:42:30;;;;;;;12.00;5.73;;;5.40;99.90;;;;;;5033766;28;20037;-74
2024/01/29 10:44:59;;;;;;;11.43;5.13;;;5.50;99.90;;;;;;5030037;28;20017;-74
2024/01/29 10:47:35;;;;;;;17.40;5.63;;;5.60;99.90;;;;;;5028168;28;20049;-74
2024/01/29 10:50:01;;;;;;;19.27;6.33;;;5.70;99.90;;;;;;5030028;28;20028;-74
2024/01/29 10:52:27;;;;;;;20.17;5.60;;;5.80;99.90;;;;;;5031695;28;20033;-74
2024/01/29 10:54:56;;;;;;;22.87;6.03;;;6.00;99.90;;;;;;5030254;28;20018;-74
2024/01/29 10:57:23;;;;;;;15.83;5.13;;;6.10;99.90;;;;;;5031439;28;20036;-74
2024/01/29 10:59:49;;;;;;;20.70;5.83;;;6.20;99.90;;;;;;5037559;28;20029;-74
2024/01/29 11:02:15;;;;;;;11.23;4.87;;;6.30;99.90;;;;;;5031875;28;20050;-75
2024/01/29 11:04:41;;;;;;;18.10;5.97;;;6.40;99.90;;;;;;5042341;28;20558;-75
2024/01/29 11:07:15;;;;;;;18.23;6.47;;;6.50;99.90;;;;;;5029105;28;20029;-75
2024/01/29 11:10:09;;;;;;;16.33;5.10;;;6.60;99.90;;;;;;5036863;28;20013;-74
2024/01/29 11:12:38;;;;;;;16.23;5.23;;;6.70;99.90;;;;;;5027758;28;20048;-75
2024/01/29 11:15:04;;;;;;;15.47;5.03;;;6.80;99.90;;;;;;5029396;28;20022;-74
2024/01/29 11:17:30;;;;;;;9.70;4.87;;;6.90;99.90;;;;;;5029474;28;20030;-74
2024/01/29 11:20:04;;;;;;;14.37;5.77;;;7.00;99.90;;;;;;5011494;28;20068;-74
2024/01/29 11:22:40;;;;;;;17.57;5.83;;;7.10;99.90;;;;;;5020151;28;20030;-74
2024/01/29 11:25:16;;;;;;;19.73;6.63;;;7.20;99.90;;;;;;5029146;28;20033;-74
2024/01/29 11:27:43;;;;;;;12.80;6.70;;;7.20;99.90;;;;;;5031236;28;20385;-74
2024/01/29 11:30:26;;;;;;;18.90;7.13;;;7.30;99.90;;;;;;5031039;28;20440;-75
2024/01/29 11:32:54;;;;;;;17.33;6.83;;;7.40;99.90;;;;;;5032554;28;20041;-74
2024/01/29 11:35:22;;;;;;;13.53;6.40;;;7.50;99.90;;;;;;5030111;28;20060;-74
2024/01/29 11:37:51;;;;;;;13.70;5.90;;;7.60;99.90;;;;;;5030595;28;20029;-74
2024/01/29 11:40:43;;;;;;;10.20;5.27;;;7.60;99.90;;;;;;5026780;28;20400;-74
2024/01/29 11:43:11;;;;;;;10.50;5.10;;;7.70;99.90;;;;;;5008716;28;20096;-75
2024/01/29 11:45:37;;;;;;;14.43;6.00;;;7.80;99.90;;;;;;5011129;28;20067;-75
2024/01/29 11:48:10;;;;;;;15.05;5.90;;;8.00;99.90;;;;;;5011013;28;20389;-75
2024/01/29 11:50:39;;;;;;;11.30;6.20;;;8.00;99.90;;;;;;5024080;28;20021;-74
2024/01/29 11:53:09;;;;;;;15.35;6.80;;;8.10;99.90;;;;;;5028079;28;20028;-75
2024/01/29 11:55:34;;;;;;;12.10;6.50;;;8.10;99.90;;;;;;5025395;28;20051;-74
2024/01/29 11:58:00;;;;;;;16.27;7.27;;;8.20;99.90;;;;;;5019208;28;20139;-75
2024/01/29 12:00:25;;;;;;;14.85;6.95;;;8.30;99.90;;;;;;5019510;28;20018;-75
2024/01/29 12:02:51;;;;;;;15.80;7.73;;;8.40;99.90;;;;;;5023920;28;20574;-75
2024/01/29 12:05:18;;;;;;;16.37;7.63;;;8.40;99.90;;;;;;5028367;28;20033;-75
2024/01/29 12:07:49;;;;;;;17.40;8.00;;;8.50;99.90;;;;;;5040073;28;20014;-76
2024/01/29 12:10:16;;;;;;;16.50;7.70;;;8.60;99.90;;;;;;5046813;28;20053;-76
2024/01/29 12:12:41;;;;;;;15.70;7.55;;;8.70;99.90;;;;;;5032268;28;20029;-72
2024/01/29 12:15:09;;;;;;;;;;;8.80;99.90;;;;;;5031023;28;20124;-72
2024/01/29 12:17:38;;;;;;;16.30;7.90;;;8.90;99.90;;;;;;5031517;28;20037;-71
2024/01/29 12:20:05;;;;;;;21.85;7.90;;;9.00;99.90;;;;;;5032814;28;20149;-72
2024/01/29 12:22:31;;;;;;;16.90;8.40;;;9.10;99.90;;;;;;5030808;28;20437;-72
2024/01/29 12:24:57;;;;;;;12.70;7.30;;;9.20;99.90;;;;;;5039422;28;19905;-72
2024/01/29 12:27:23;;;;;;;19.30;7.00;;;9.30;99.90;;;;;;5041825;28;20104;-71
2024/01/29 12:29:49;;;;;;;12.00;6.30;;;9.40;99.90;;;;;;5031342;28;19940;-71
2024/01/29 12:32:20;;;;;;;;;;;9.50;99.90;;;;;;5029176;28;20068;-73
2024/01/29 12:34:46;;;;;;;;;;;9.60;99.90;;;;;;5036243;28;20385;-72
2024/01/29 12:37:16;;;;;;;;;;;9.70;99.90;;;;;;5028404;28;20056;-75
2024/01/29 12:39:42;;;;;;;;;;;9.80;99.90;;;;;;5022916;28;20047;-76